Time;durP1;ratioP1;P1;durP2;ratioP2;P2;SDS_P1;SDS_P2;PMS_P1;PMS_P2;Temp;Humidity;BMP_temperature;BMP_pressure;BME280_temperature;BME280_humidity;BME280_pressure;Samples;Min_cycle;Max_cycle;Signal;HPM_P1;HPM_P2
2022/05/17 00:00:38;;;;;;;6.23;3.63;;;14.50;99.90;;;;;;4977453;28;20235;-42
2022/05/17 00:03:05;;;;;;;8.93;3.60;;;14.60;99.90;;;;;;4961531;28;20176;-39
2022/05/17 00:05:31;;;;;;;7.63;3.77;;;14.50;99.90;;;;;;4961499;28;20204;-37
2022/05/17 00:07:57;;;;;;;3.73;3.23;;;14.50;99.90;;;;;;4961324;28;20176;-37
2022/05/17 00:10:23;;;;;;;4.93;3.50;;;14.50;99.90;;;;;;4977233;28;20199;-39
2022/05/17 00:12:56;;;;;;;6.47;3.30;;;14.40;99.90;;;;;;4994601;28;20731;-44
2022/05/17 00:15:23;;;;;;;5.87;3.57;;;14.40;99.90;;;;;;4961053;28;20739;-41
2022/05/17 00:17:52;;;;;;;4.67;3.33;;;14.30;99.90;;;;;;4961112;28;20184;-38
2022/05/17 00:20:18;;;;;;;6.17;3.60;;;14.30;99.90;;;;;;4976918;28;20208;-40
2022/05/17 00:22:44;;;;;;;4.67;3.60;;;14.20;99.90;;;;;;4961022;28;20195;-38
2022/05/17 00:25:14;;;;;;;4.57;3.53;;;14.10;99.90;;;;;;4960929;28;20191;-38
2022/05/17 00:27:40;;;;;;;4.40;3.47;;;14.00;99.90;;;;;;4960888;28;20179;-38
2022/05/17 00:30:07;;;;;;;5.50;3.53;;;13.90;99.90;;;;;;4960679;28;20183;-37
2022/05/17 00:32:33;;;;;;;5.87;3.90;;;13.90;99.90;;;;;;4993096;28;20270;-40
2022/05/17 00:34:59;;;;;;;4.03;3.60;;;13.80;99.90;;;;;;4960807;28;20291;-41
2022/05/17 00:37:25;;;;;;;7.83;4.00;;;13.80;99.90;;;;;;4976707;28;20184;-40
2022/05/17 00:39:51;;;;;;;6.07;4.07;;;13.70;99.90;;;;;;4960104;28;20219;-37
2022/05/17 00:42:17;;;;;;;9.40;3.80;;;13.60;99.90;;;;;;4960833;28;20259;-37
2022/05/17 00:44:43;;;;;;;4.53;3.50;;;13.60;99.90;;;;;;4960603;28;20783;-37
2022/05/17 00:47:21;;;;;;;8.10;4.17;;;13.50;99.90;;;;;;4976719;28;20180;-38
2022/05/17 00:50:07;;;;;;;6.83;3.80;;;13.50;99.90;;;;;;4976467;28;20180;-37
2022/05/17 00:52:40;;;;;;;6.00;3.70;;;13.50;99.90;;;;;;4960430;28;20187;-37
2022/05/17 00:55:38;;;;;;;5.83;3.60;;;13.60;99.90;;;;;;4992832;28;20222;-38
2022/05/17 00:58:17;;;;;;;7.77;3.77;;;13.60;99.90;;;;;;4976195;28;20195;-37
2022/05/17 01:01:03;;;;;;;4.43;3.50;;;13.60;99.90;;;;;;4960217;28;20211;-37
2022/05/17 01:03:59;;;;;;;5.73;4.10;;;13.50;99.90;;;;;;4960461;28;20214;-37
2022/05/17 01:06:31;;;;;;;4.20;3.70;;;13.50;99.90;;;;;;4993669;28;20277;-39
2022/05/17 01:08:57;;;;;;;4.73;3.30;;;13.40;99.90;;;;;;4976002;28;20207;-37
2022/05/17 01:11:23;;;;;;;4.80;3.47;;;13.50;99.90;;;;;;4960143;28;20194;-38
2022/05/17 01:16:34;;;;;;;3.97;3.43;;;13.50;99.90;;;;;;4992082;28;20647;-38
2022/05/17 01:19:00;;;;;;;6.63;3.87;;;13.50;99.90;;;;;;4960100;28;20187;-37
2022/05/17 01:21:26;;;;;;;5.33;3.47;;;13.40;99.90;;;;;;4959711;28;20215;-40
2022/05/17 01:23:52;;;;;;;5.90;4.10;;;13.40;99.90;;;;;;4959830;28;20197;-40
2022/05/17 01:26:21;;;;;;;5.13;3.73;;;13.30;99.90;;;;;;4993386;28;20202;-38
2022/05/17 01:28:48;;;;;;;8.47;3.80;;;13.30;99.90;;;;;;4959894;28;20172;-37
2022/05/17 01:31:14;;;;;;;4.60;3.73;;;13.20;99.90;;;;;;4959753;28;20192;-37
2022/05/17 01:33:40;;;;;;;5.93;4.07;;;13.20;99.90;;;;;;4975763;28;20176;-37
2022/05/17 01:36:09;;;;;;;6.47;3.80;;;13.20;99.90;;;;;;4959501;28;20208;-38
2022/05/17 01:38:36;;;;;;;4.83;3.63;;;13.30;99.90;;;;;;4959887;28;20184;-37
2022/05/17 01:41:02;;;;;;;4.97;3.50;;;13.30;99.90;;;;;;4991766;28;20705;-43
2022/05/17 01:43:28;;;;;;;3.90;3.60;;;13.30;99.90;;;;;;4991172;28;20180;-37
2022/05/17 01:45:54;;;;;;;6.00;4.40;;;13.30;99.90;;;;;;4975393;28;20678;-37
2022/05/17 01:48:20;;;;;;;4.43;3.80;;;13.20;99.90;;;;;;4975506;28;20184;-37
2022/05/17 01:50:46;;;;;;;5.67;3.67;;;13.20;99.90;;;;;;4959029;28;20209;-38
2022/05/17 01:53:12;;;;;;;6.37;4.30;;;13.10;99.90;;;;;;4992938;28;20175;-40
2022/05/17 01:55:38;;;;;;;4.80;3.90;;;13.10;99.90;;;;;;4959349;28;20199;-40
2022/05/17 01:58:05;;;;;;;4.50;3.93;;;13.00;99.90;;;;;;4959108;28;20184;-37
2022/05/17 02:00:32;;;;;;;4.13;3.67;;;12.90;99.90;;;;;;4974956;28;20204;-37
2022/05/17 02:02:57;;;;;;;5.13;3.87;;;12.80;99.90;;;;;;4975192;28;20186;-37
2022/05/17 02:05:25;;;;;;;5.83;3.87;;;12.90;99.90;;;;;;4975057;28;20221;-38
2022/05/17 02:07:51;;;;;;;5.23;3.97;;;12.90;99.90;;;;;;4959209;28;20242;-37
2022/05/17 02:10:19;;;;;;;5.73;3.93;;;12.90;99.90;;;;;;4975165;28;20190;-37
2022/05/17 02:12:45;;;;;;;4.63;3.67;;;12.90;99.90;;;;;;4992490;28;20208;-37
2022/05/17 02:15:12;;;;;;;5.23;4.27;;;13.00;99.90;;;;;;4958275;28;20409;-37
2022/05/17 02:17:38;;;;;;;9.37;4.30;;;13.00;99.90;;;;;;4974741;28;20205;-37
2022/05/17 02:20:07;;;;;;;6.37;4.50;;;13.00;99.90;;;;;;4958504;28;20210;-37
2022/05/17 02:22:33;;;;;;;9.90;4.17;;;13.10;99.90;;;;;;4991029;28;20182;-37
2022/05/17 02:24:59;;;;;;;5.70;3.63;;;13.10;99.90;;;;;;4975024;28;20561;-39
2022/05/17 02:27:25;;;;;;;9.00;4.03;;;13.10;99.90;;;;;;4991124;28;20270;-37
2022/05/17 02:29:51;;;;;;;7.43;4.30;;;13.00;99.90;;;;;;4958278;28;20257;-37
2022/05/17 02:32:17;;;;;;;5.70;4.07;;;12.90;99.90;;;;;;4958456;28;20287;-37
2022/05/17 02:34:43;;;;;;;6.97;4.53;;;13.00;99.90;;;;;;4990972;28;20276;-37
2022/05/17 02:37:09;;;;;;;6.00;4.53;;;13.00;99.90;;;;;;4992378;28;20206;-38
2022/05/17 02:39:35;;;;;;;4.57;3.97;;;12.90;99.90;;;;;;4974490;28;20179;-38
2022/05/17 02:42:02;;;;;;;4.43;3.70;;;13.00;99.90;;;;;;4958355;28;20393;-37
2022/05/17 02:44:29;;;;;;;6.47;4.10;;;13.00;99.90;;;;;;4990807;28;20191;-39
2022/05/17 02:46:57;;;;;;;5.67;4.43;;;12.90;99.90;;;;;;4974429;28;20184;-37
2022/05/17 02:49:23;;;;;;;4.63;3.70;;;12.90;99.90;;;;;;4958348;28;20662;-37
2022/05/17 02:51:49;;;;;;;5.47;4.23;;;12.80;99.90;;;;;;4958509;28;20229;-37
2022/05/17 02:54:15;;;;;;;5.53;4.57;;;12.80;99.90;;;;;;4973756;28;20185;-39
2022/05/17 02:56:40;;;;;;;4.63;3.70;;;12.70;99.90;;;;;;4990386;28;20210;-37
2022/05/17 02:59:06;;;;;;;5.93;3.70;;;12.70;99.90;;;;;;4974013;28;20182;-37
2022/05/17 03:01:33;;;;;;;6.50;3.83;;;12.60;99.90;;;;;;4957752;28;20238;-37
2022/05/17 03:03:59;;;;;;;6.43;4.30;;;12.60;99.90;;;;;;4958231;28;20637;-37
2022/05/17 03:06:25;;;;;;;6.43;4.13;;;12.60;99.90;;;;;;4958313;28;20202;-37
2022/05/17 03:08:50;;;;;;;6.57;4.03;;;12.70;99.90;;;;;;4990112;28;20198;-37
2022/05/17 03:11:18;;;;;;;9.27;4.20;;;12.70;99.90;;;;;;4990305;28;20212;-37
2022/05/17 03:13:45;;;;;;;8.33;4.77;;;12.70;99.90;;;;;;4974371;28;20214;-37
2022/05/17 03:16:12;;;;;;;8.00;4.30;;;12.70;99.90;;;;;;5045314;23;20317;-31
2022/05/17 03:18:39;;;;;;;6.33;4.60;;;12.70;99.90;;;;;;4993354;28;20258;-30
2022/05/17 03:21:05;;;;;;;5.43;4.37;;;12.60;99.90;;;;;;4993270;28;20285;-30
2022/05/17 03:23:31;;;;;;;7.83;4.67;;;12.60;99.90;;;;;;4993052;28;20201;-31
2022/05/17 03:25:57;;;;;;;6.87;4.60;;;12.50;99.90;;;;;;4993627;28;20221;-30
2022/05/17 03:28:22;;;;;;;4.63;4.10;;;12.50;99.90;;;;;;4977478;28;20212;-30
2022/05/17 03:30:49;;;;;;;7.07;4.50;;;12.40;99.90;;;;;;4977162;28;20242;-30
2022/05/17 03:33:15;;;;;;;9.20;4.30;;;12.30;99.90;;;;;;4993614;28;20187;-31
2022/05/17 03:35:41;;;;;;;9.47;4.70;;;12.20;99.90;;;;;;4993495;28;20212;-30
2022/05/17 03:38:07;;;;;;;7.60;4.80;;;12.20;99.90;;;;;;4977263;28;20214;-30
2022/05/17 03:40:32;;;;;;;7.60;4.47;;;12.00;99.90;;;;;;4976832;28;20221;-31
2022/05/17 03:42:59;;;;;;;5.00;4.37;;;12.10;99.90;;;;;;4977064;28;20275;-30
2022/05/17 03:45:24;;;;;;;7.93;6.17;;;12.10;99.90;;;;;;4976944;28;20282;-30
2022/05/17 03:47:50;;;;;;;7.63;5.10;;;12.00;99.90;;;;;;4993499;28;20289;-30
2022/05/17 03:50:17;;;;;;;7.53;4.40;;;12.00;99.90;;;;;;4977231;28;20185;-30
2022/05/17 03:52:44;;;;;;;8.10;5.53;;;11.90;99.90;;;;;;4993430;28;20175;-30
2022/05/17 03:55:11;;;;;;;6.87;5.40;;;11.90;99.90;;;;;;4976940;28;20286;-30
2022/05/17 03:57:37;;;;;;;7.50;4.70;;;12.00;99.90;;;;;;5010918;28;20184;-30
2022/05/17 04:00:06;;;;;;;7.27;5.53;;;12.00;99.90;;;;;;4976604;28;20201;-30
2022/05/17 04:02:39;;;;;;;7.20;5.33;;;12.10;99.90;;;;;;4993889;28;20258;-30
2022/05/17 04:05:05;;;;;;;7.30;5.23;;;12.10;99.90;;;;;;5000650;28;20209;-31
2022/05/17 04:07:31;;;;;;;6.00;4.20;;;12.10;99.90;;;;;;4995625;28;20189;-30
2022/05/17 04:09:57;;;;;;;6.83;4.70;;;12.10;99.90;;;;;;4996476;28;20185;-29
2022/05/17 04:12:23;;;;;;;8.43;4.80;;;12.10;99.90;;;;;;4980083;28;20180;-30
2022/05/17 04:14:49;;;;;;;5.87;4.50;;;12.20;99.90;;;;;;4996812;28;20597;-31
2022/05/17 04:17:15;;;;;;;7.93;4.90;;;12.10;99.90;;;;;;4996859;28;20210;-30
2022/05/17 04:19:41;;;;;;;9.87;5.27;;;12.20;99.90;;;;;;4996542;28;20216;-31
2022/05/17 04:22:11;;;;;;;7.23;5.63;;;12.10;99.90;;;;;;4980458;28;20201;-29
2022/05/17 04:24:38;;;;;;;7.87;5.37;;;12.00;99.90;;;;;;4980431;28;20184;-30
2022/05/17 04:27:05;;;;;;;8.83;5.47;;;12.00;99.90;;;;;;4980165;28;20200;-29
2022/05/17 04:29:31;;;;;;;6.67;5.03;;;11.90;99.90;;;;;;5014034;28;20175;-31
2022/05/17 04:31:57;;;;;;;6.67;4.90;;;11.90;99.90;;;;;;4980134;28;20180;-29
2022/05/17 04:34:23;;;;;;;8.00;5.50;;;11.90;99.90;;;;;;4980337;28;20193;-30
2022/05/17 04:36:51;;;;;;;11.20;5.40;;;12.00;99.90;;;;;;4996632;28;20204;-30
2022/05/17 04:39:16;;;;;;;13.90;5.63;;;12.00;99.90;;;;;;4996054;28;20661;-31
2022/05/17 04:41:43;;;;;;;7.60;5.20;;;12.10;99.90;;;;;;4996188;28;20223;-29
2022/05/17 04:44:09;;;;;;;8.97;5.63;;;12.10;99.90;;;;;;4996284;28;20176;-30
2022/05/17 04:46:35;;;;;;;9.17;6.00;;;12.20;99.90;;;;;;4996356;28;20295;-31
2022/05/17 04:49:01;;;;;;;9.27;5.87;;;12.20;99.90;;;;;;4979060;28;20275;-32
2022/05/17 04:52:23;;;;;;;7.17;5.40;;;12.20;99.90;;;;;;4995455;28;20634;-30
2022/05/17 04:54:50;;;;;;;5.73;5.13;;;12.30;99.90;;;;;;4997879;28;20533;-30
2022/05/17 04:57:17;;;;;;;8.23;5.17;;;12.40;99.90;;;;;;4995651;28;20595;-30
2022/05/17 04:59:43;;;;;;;7.97;5.23;;;12.50;99.90;;;;;;5025397;28;20192;-30
2022/05/17 05:02:09;;;;;;;7.83;5.43;;;12.60;99.90;;;;;;5028676;28;20185;-30
2022/05/17 05:04:38;;;;;;;10.50;6.03;;;12.70;99.90;;;;;;5008894;28;20764;-30
2022/05/17 05:07:10;;;;;;;7.63;5.40;;;12.70;99.90;;;;;;5023225;28;20200;-29
2022/05/17 05:09:36;;;;;;;8.57;5.40;;;12.80;99.90;;;;;;4998035;28;20174;-30
2022/05/17 05:12:03;;;;;;;9.97;5.60;;;12.90;99.90;;;;;;5029855;28;20180;-30
2022/05/17 05:14:29;;;;;;;6.70;5.30;;;13.00;99.90;;;;;;5012763;28;20174;-31
2022/05/17 05:16:55;;;;;;;8.93;6.17;;;13.10;99.90;;;;;;4978202;28;20221;-30
2022/05/17 05:19:20;;;;;;;8.83;5.90;;;13.20;99.90;;;;;;4995635;28;20189;-31
2022/05/17 05:21:46;;;;;;;8.83;6.00;;;13.40;99.90;;;;;;4997134;28;20310;-29
2022/05/17 05:24:12;;;;;;;11.27;6.07;;;13.40;99.90;;;;;;5030819;28;20195;-29
2022/05/17 05:26:39;;;;;;;6.37;5.20;;;13.50;99.90;;;;;;5013461;28;20223;-31
2022/05/17 05:29:06;;;;;;;8.33;5.83;;;13.70;99.90;;;;;;4995257;28;20258;-30
2022/05/17 05:31:32;;;;;;;6.83;5.03;;;13.90;99.90;;;;;;5027752;28;20229;-30
2022/05/17 05:34:00;;;;;;;6.33;5.43;;;14.00;99.90;;;;;;4995305;28;20188;-30
2022/05/17 05:36:27;;;;;;;7.70;4.80;;;14.10;99.90;;;;;;4995227;28;20348;-30
2022/05/17 05:38:54;;;;;;;5.97;5.10;;;14.10;99.90;;;;;;5011493;28;20190;-31
2022/05/17 05:41:20;;;;;;;7.83;5.40;;;14.20;99.90;;;;;;5011434;28;20207;-30
2022/05/17 05:43:46;;;;;;;7.53;5.57;;;14.30;99.90;;;;;;4995072;28;20202;-30
2022/05/17 05:46:12;;;;;;;7.83;5.23;;;14.40;99.90;;;;;;5027655;28;20207;-31
2022/05/17 05:48:38;;;;;;;7.40;5.50;;;14.50;99.90;;;;;;4995282;28;20175;-32
2022/05/17 05:51:06;;;;;;;7.93;5.53;;;14.70;99.90;;;;;;5027876;28;20266;-30
2022/05/17 05:53:32;;;;;;;7.63;5.30;;;14.90;99.90;;;;;;5011155;28;20185;-31
2022/05/17 05:56:01;;;;;;;8.03;5.63;;;15.00;99.90;;;;;;5027856;28;20259;-31
2022/05/17 05:58:33;;;;;;;5.80;5.20;;;15.20;99.90;;;;;;4994992;28;20175;-31
2022/05/17 06:00:59;;;;;;;9.33;5.23;;;15.30;99.90;;;;;;4978548;28;20222;-32
2022/05/17 06:03:26;;;;;;;5.67;5.07;;;15.50;99.90;;;;;;5011455;28;20179;-31
2022/05/17 06:05:52;;;;;;;7.07;4.47;;;15.60;99.90;;;;;;4994649;28;20195;-31
2022/05/17 06:08:18;;;;;;;10.47;5.33;;;15.70;99.90;;;;;;5027336;28;20180;-31
2022/05/17 06:10:44;;;;;;;6.23;4.80;;;15.70;99.90;;;;;;4994515;28;20183;-31
2022/05/17 06:13:13;;;;;;;7.33;5.43;;;15.80;99.90;;;;;;5010387;28;20180;-31
2022/05/17 06:15:40;;;;;;;7.70;5.00;;;15.90;99.90;;;;;;5011878;28;20238;-31
2022/05/17 06:18:07;;;;;;;6.23;4.40;;;16.00;99.90;;;;;;5027325;28;20224;-31
2022/05/17 06:20:34;;;;;;;8.30;4.90;;;16.20;99.90;;;;;;5010357;28;20250;-31
2022/05/17 06:23:00;;;;;;;9.53;4.37;;;16.30;99.90;;;;;;4994457;28;20171;-31
2022/05/17 06:25:26;;;;;;;8.97;4.97;;;16.40;99.90;;;;;;4994441;28;20206;-31
2022/05/17 06:27:52;;;;;;;7.60;4.50;;;16.50;99.90;;;;;;5026945;28;20198;-31
2022/05/17 06:30:18;;;;;;;5.60;5.10;;;16.70;99.90;;;;;;5026866;28;20175;-31
2022/05/17 06:32:44;;;;;;;6.70;5.10;;;16.80;99.90;;;;;;5010483;28;20257;-31
2022/05/17 06:35:12;;;;;;;6.73;5.60;;;16.70;99.90;;;;;;5026834;28;20206;-31
2022/05/17 06:37:38;;;;;;;7.32;5.03;;;16.80;99.90;;;;;;5010417;28;20183;-31
2022/05/17 06:40:06;;;;;;;6.85;5.00;;;16.90;99.90;;;;;;5011429;28;20272;-31
2022/05/17 06:42:34;;;;;;;6.57;5.07;;;17.00;99.90;;;;;;5010178;28;20192;-31
2022/05/17 06:45:00;;;;;;;6.13;4.93;;;17.20;99.90;;;;;;4994104;28;20198;-30
2022/05/17 06:47:26;;;;;;;7.35;4.57;;;17.30;99.90;;;;;;4994106;28;20302;-31
2022/05/17 06:49:53;;;;;;;9.95;4.72;;;17.40;99.90;;;;;;5009748;28;20252;-30
2022/05/17 06:52:23;;;;;;;6.18;4.65;;;17.50;99.90;;;;;;5026617;28;20175;-29
2022/05/17 06:54:49;;;;;;;6.32;4.63;;;17.60;99.90;;;;;;5026043;28;20175;-30
2022/05/17 06:57:16;;;;;;;8.95;4.43;;;17.60;99.90;;;;;;4992855;28;20281;-30
2022/05/17 06:59:44;;;;;;;8.60;4.75;;;17.80;99.90;;;;;;5010083;28;20222;-30
2022/05/17 07:02:10;;;;;;;7.70;4.68;;;17.90;99.90;;;;;;5025329;28;20245;-31
2022/05/17 07:04:37;;;;;;;7.43;4.43;;;18.10;99.90;;;;;;5010071;28;20286;-30
2022/05/17 07:07:04;;;;;;;6.03;4.57;;;18.20;99.90;;;;;;5025264;28;20203;-29
2022/05/17 07:09:30;;;;;;;5.43;4.53;;;18.20;99.90;;;;;;5025154;28;20190;-29
2022/05/17 07:14:42;;;;;;;8.27;4.55;;;18.40;99.90;;;;;;5011402;28;20179;-31
2022/05/17 07:17:21;;;;;;;8.70;4.70;;;18.40;99.90;;;;;;5011152;28;20293;-32
2022/05/17 07:19:47;;;;;;;7.20;4.13;;;18.50;99.90;;;;;;5010708;28;20183;-32
2022/05/17 07:22:13;;;;;;;7.43;4.82;;;18.60;99.90;;;;;;4993483;28;20341;-32
2022/05/17 07:24:41;;;;;;;5.70;4.03;;;18.70;99.90;;;;;;4977589;28;20198;-32
2022/05/17 07:27:09;;;;;;;7.65;4.47;;;18.80;99.90;;;;;;4993384;28;20191;-32
2022/05/17 07:29:35;;;;;;;4.93;3.90;;;18.90;99.90;;;;;;4993254;28;20195;-32
2022/05/17 07:32:03;;;;;;;6.65;4.50;;;19.10;99.90;;;;;;4993322;28;20183;-32
2022/05/17 07:34:28;;;;;;;6.93;4.00;;;19.10;99.90;;;;;;4993465;28;20183;-30
2022/05/17 07:36:55;;;;;;;6.60;4.30;;;19.30;99.90;;;;;;5010953;28;20205;-31
2022/05/17 07:39:21;;;;;;;6.05;4.35;;;19.40;99.90;;;;;;4993270;28;20183;-30
2022/05/17 07:41:48;;;;;;;5.15;4.18;;;19.60;99.90;;;;;;4996541;28;20226;-32
2022/05/17 07:44:14;;;;;;;7.28;4.40;;;19.80;99.90;;;;;;4997028;28;20700;-32
2022/05/17 07:46:40;;;;;;;5.10;4.43;;;19.80;99.90;;;;;;5029891;28;20203;-32
2022/05/17 07:49:06;;;;;;;6.03;4.38;;;19.90;99.90;;;;;;5014458;28;20186;-32
2022/05/17 07:51:33;;;;;;;6.15;4.53;;;20.00;99.90;;;;;;5015207;28;20183;-31
2022/05/17 07:53:59;;;;;;;7.63;4.78;;;20.20;99.90;;;;;;5014803;28;20257;-32
2022/05/17 07:56:25;;;;;;;5.80;4.45;;;20.40;99.90;;;;;;5029843;28;20294;-32
2022/05/17 07:58:51;;;;;;;6.97;4.47;;;20.60;99.90;;;;;;4996861;28;20191;-32
2022/05/17 08:01:16;;;;;;;6.38;4.57;;;20.80;99.90;;;;;;4980880;28;20235;-33
2022/05/17 08:03:42;;;;;;;7.40;4.88;;;20.90;99.90;;;;;;4997124;28;20176;-33
2022/05/17 08:06:08;;;;;;;7.18;4.93;;;20.90;99.90;;;;;;5015221;28;20191;-33
2022/05/17 08:08:34;;;;;;;7.55;4.78;;;20.90;99.90;;;;;;5013422;28;20187;-33
2022/05/17 08:11:01;;;;;;;9.57;5.25;;;21.10;99.90;;;;;;4996655;28;20229;-33
2022/05/17 08:13:27;;;;;;;9.68;5.20;;;21.10;99.90;;;;;;5029552;28;20183;-32
2022/05/17 08:15:53;;;;;;;7.30;4.82;;;21.20;99.90;;;;;;4996500;28;20210;-33
2022/05/17 08:18:19;;;;;;;8.23;4.70;;;21.10;99.90;;;;;;5029323;28;20175;-33
2022/05/17 08:20:46;;;;;;;8.88;4.93;;;21.30;99.90;;;;;;4996559;28;20210;-33
2022/05/17 08:23:13;;;;;;;6.18;4.45;;;21.30;99.90;;;;;;4996671;28;20176;-32
2022/05/17 08:28:24;;;;;;;5.53;4.53;;;21.60;99.90;;;;;;4996466;28;20175;-33
2022/05/17 08:30:51;;;;;;;6.75;4.95;;;21.70;99.90;;;;;;4980025;28;20249;-33
2022/05/17 08:33:19;;;;;;;5.88;4.63;;;22.00;99.90;;;;;;5029247;28;20179;-33
2022/05/17 08:35:50;;;;;;;6.13;4.63;;;22.10;99.90;;;;;;4996212;28;20191;-32
2022/05/17 08:38:21;;;;;;;5.40;4.32;;;22.10;99.90;;;;;;5029084;28;20201;-33
2022/05/17 08:41:18;;;;;;;6.85;5.28;;;22.10;99.90;;;;;;5012385;28;20302;-33
2022/05/17 08:43:52;;;;;;;5.90;4.85;;;22.30;99.90;;;;;;4980076;28;20186;-33
2022/05/17 08:46:42;;;;;;;8.05;5.00;;;22.20;99.90;;;;;;4980060;28;20195;-33
2022/05/17 08:49:34;;;;;;;6.70;5.18;;;22.30;99.90;;;;;;5013960;28;20279;-33
2022/05/17 08:52:07;;;;;;;8.18;4.97;;;22.30;99.90;;;;;;4995028;28;20189;-32
2022/05/17 08:54:38;;;;;;;7.38;5.50;;;22.50;99.90;;;;;;4996042;28;20183;-33
2022/05/17 08:57:30;;;;;;;6.88;5.18;;;22.60;99.90;;;;;;4996031;28;20199;-32
2022/05/17 08:59:59;;;;;;;5.35;4.57;;;22.50;99.90;;;;;;4979348;28;20180;-33
2022/05/17 09:03:05;;;;;;;7.68;4.78;;;22.60;99.90;;;;;;5028368;28;20175;-33
2022/05/17 09:05:55;;;;;;;6.10;4.80;;;22.70;99.90;;;;;;5011763;28;20214;-32
2022/05/17 09:09:03;;;;;;;5.85;4.63;;;22.80;99.90;;;;;;4946743;28;20237;-33
2022/05/17 09:11:43;;;;;;;7.22;4.30;;;22.70;99.90;;;;;;4933802;28;20179;-32
2022/05/17 09:14:16;;;;;;;8.27;4.50;;;22.60;99.90;;;;;;5011341;28;20167;-33
2022/05/17 09:16:50;;;;;;;5.25;4.75;;;22.60;99.90;;;;;;5045645;22;20230;-41
2022/05/17 09:19:18;;;;;;;5.65;4.57;;;22.70;99.90;;;;;;5031966;28;20281;-42
2022/05/17 09:21:47;;;;;;;5.57;4.30;;;23.00;99.90;;;;;;5014996;28;20215;-40
2022/05/17 09:24:24;;;;;;;5.20;4.45;;;23.10;99.90;;;;;;5014313;28;20183;-40
2022/05/17 09:27:05;;;;;;;5.38;4.35;;;23.30;99.90;;;;;;4998552;28;20225;-42
2022/05/17 09:29:44;;;;;;;4.40;3.90;;;23.20;99.90;;;;;;5015073;28;20269;-40
2022/05/17 09:32:12;;;;;;;5.35;4.38;;;23.20;99.90;;;;;;5032656;28;20181;-43
2022/05/17 09:34:40;;;;;;;7.03;4.30;;;23.50;99.90;;;;;;5014709;28;20175;-40
2022/05/17 09:37:20;;;;;;;6.03;4.10;;;23.80;99.90;;;;;;5032036;28;20198;-42
2022/05/17 09:39:51;;;;;;;6.03;4.20;;;24.10;99.90;;;;;;5014605;28;20210;-40
2022/05/17 09:42:42;;;;;;;4.32;3.78;;;24.30;99.90;;;;;;4998359;28;20277;-40
2022/05/17 09:45:16;;;;;;;4.53;3.70;;;24.30;99.90;;;;;;4985016;28;20187;-41
2022/05/17 09:48:04;;;;;;;4.35;3.30;;;24.40;99.90;;;;;;5022175;28;20192;-42
2022/05/17 09:53:58;;;;;;;4.35;3.95;;;24.20;99.90;;;;;;5032044;28;20239;-39
2022/05/17 09:56:26;;;;;;;4.80;4.40;;;24.40;99.90;;;;;;4976366;28;20209;-41
2022/05/17 09:58:52;;;;;;;5.90;4.22;;;24.40;99.90;;;;;;4997445;28;20178;-39
2022/05/17 10:01:21;;;;;;;4.95;3.70;;;24.40;99.90;;;;;;4997501;28;20213;-39
2022/05/17 10:03:59;;;;;;;4.85;3.08;;;24.50;99.90;;;;;;4996323;28;20174;-40
2022/05/17 10:06:56;;;;;;;5.30;3.10;;;24.50;99.90;;;;;;4997331;28;20198;-39
2022/05/17 10:09:32;;;;;;;6.15;3.83;;;24.60;99.90;;;;;;4996262;28;20194;-40
2022/05/17 10:12:12;;;;;;;6.72;4.00;;;24.70;99.90;;;;;;4997053;28;20178;-41
2022/05/17 10:14:50;;;;;;;4.25;3.80;;;24.60;99.90;;;;;;5030628;28;20337;-40
2022/05/17 10:17:19;;;;;;;5.32;3.00;;;24.40;99.90;;;;;;5012592;28;20686;-40
2022/05/17 10:20:01;;;;;;;5.18;2.92;;;24.50;99.90;;;;;;5028263;28;20209;-40
2022/05/17 10:22:45;;;;;;;3.13;2.65;;;24.40;99.90;;;;;;5011307;28;20209;-43
2022/05/17 10:25:41;;;;;;;4.78;3.30;;;24.60;99.90;;;;;;4977995;28;20179;-41
2022/05/17 10:28:33;;;;;;;3.42;3.03;;;25.00;99.90;;;;;;5016247;28;20235;-41
2022/05/17 10:31:31;;;;;;;8.27;3.45;;;24.90;99.90;;;;;;5029163;28;20179;-42
2022/05/17 10:34:10;;;;;;;3.75;2.80;;;24.70;99.90;;;;;;4997102;28;20186;-42
2022/05/17 10:36:56;;;;;;;5.28;3.10;;;25.00;99.90;;;;;;5003008;28;20202;-40
2022/05/17 10:39:29;;;;;;;3.60;3.00;;;25.10;99.90;;;;;;4994591;28;20217;-40
2022/05/17 10:41:56;;;;;;;3.00;2.63;;;25.20;99.90;;;;;;5013305;28;20260;-42
2022/05/17 10:44:38;;;;;;;4.18;2.95;;;25.40;99.90;;;;;;5011504;28;20198;-41
2022/05/17 10:47:14;;;;;;;3.10;2.80;;;25.40;99.90;;;;;;4994719;28;20210;-40
2022/05/17 10:50:02;;;;;;;4.30;2.83;;;25.60;99.90;;;;;;4996563;28;20177;-40
2022/05/17 10:52:56;;;;;;;5.53;2.70;;;25.60;99.90;;;;;;4994813;28;20178;-42
2022/05/17 10:55:37;;;;;;;3.60;2.80;;;25.60;99.90;;;;;;5010615;28;20209;-40
2022/05/17 10:58:10;;;;;;;4.75;2.65;;;25.90;99.90;;;;;;4996736;28;20178;-40
2022/05/17 11:00:43;;;;;;;3.05;2.53;;;26.10;99.90;;;;;;5030950;28;20216;-41
2022/05/17 11:03:24;;;;;;;4.18;2.50;;;26.20;99.90;;;;;;4997639;28;20328;-40
2022/05/17 11:06:12;;;;;;;4.13;2.35;;;26.40;99.90;;;;;;4998190;28;20212;-44
2022/05/17 11:08:53;;;;;;;5.15;2.38;;;26.30;99.90;;;;;;5013353;28;20234;-44
2022/05/17 11:11:34;;;;;;;3.03;2.28;;;26.50;99.90;;;;;;4996553;28;20194;-40
2022/05/17 11:14:05;;;;;;;3.03;2.50;;;26.60;99.50;;;;;;5013650;28;20201;-44
2022/05/17 11:16:42;;;;;;;3.05;2.38;;;26.80;99.10;;;;;;4995360;28;20301;-43
2022/05/17 11:19:20;;;;;;;3.25;2.40;;;26.60;98.40;;;;;;4996578;28;20259;-40
2022/05/17 11:21:50;;;;;;;2.85;2.53;;;26.50;98.90;;;;;;4996536;28;20217;-42
2022/05/17 11:24:33;;;;;;;4.38;2.75;;;26.80;99.90;;;;;;4996362;28;20183;-41
2022/05/17 11:26:58;;;;;;;3.90;2.65;;;26.50;99.00;;;;;;4996809;28;20689;-40
2022/05/17 11:29:36;;;;;;;6.43;2.95;;;26.70;98.90;;;;;;4996237;28;20175;-39
2022/05/17 11:32:21;;;;;;;5.05;2.90;;;26.80;98.60;;;;;;5010239;28;20221;-40
2022/05/17 11:34:47;;;;;;;4.88;2.90;;;26.60;98.70;;;;;;4995058;28;20200;-41
2022/05/17 11:37:32;;;;;;;4.93;2.55;;;26.80;99.90;;;;;;5011828;28;20211;-39
2022/05/17 11:40:00;;;;;;;4.32;2.50;;;27.10;99.90;;;;;;5006995;28;20186;-39
2022/05/17 11:42:36;;;;;;;3.40;2.72;;;27.00;99.20;;;;;;4995298;28;20175;-39
2022/05/17 11:45:23;;;;;;;3.65;2.55;;;27.30;99.00;;;;;;5010428;28;20174;-39
2022/05/17 11:47:52;;;;;;;3.15;2.50;;;27.60;99.80;;;;;;5012877;28;20257;-42
2022/05/17 11:50:21;;;;;;;4.10;2.67;;;27.80;98.30;;;;;;4996083;28;20232;-40
2022/05/17 11:52:51;;;;;;;3.33;2.85;;;27.80;98.30;;;;;;4995902;28;20179;-35
2022/05/17 11:55:21;;;;;;;3.35;2.95;;;27.90;99.10;;;;;;4993920;28;20182;-36
2022/05/17 11:57:47;;;;;;;4.00;3.10;;;28.20;99.10;;;;;;5012339;28;20256;-39
2022/05/17 12:00:28;;;;;;;4.07;2.83;;;28.40;99.10;;;;;;4995327;28;20179;-39
2022/05/17 12:03:00;;;;;;;4.55;3.15;;;28.20;99.30;;;;;;4995125;28;20182;-36
2022/05/17 12:05:38;;;;;;;3.25;2.90;;;28.20;99.30;;;;;;5008963;28;20182;-43
2022/05/17 12:08:43;;;;;;;4.47;2.70;;;28.30;98.20;;;;;;5010313;28;20216;-37
2022/05/17 12:11:12;;;;;;;3.95;3.05;;;27.80;97.60;;;;;;5025691;28;20233;-36
2022/05/17 12:14:09;;;;;;;3.03;2.72;;;27.60;97.40;;;;;;5011680;28;20181;-35
2022/05/17 12:16:36;;;;;;;3.28;2.70;;;27.50;98.90;;;;;;4994159;28;20245;-38
2022/05/17 12:19:11;;;;;;;3.17;2.72;;;27.70;98.90;;;;;;5011638;28;20175;-35
2022/05/17 12:21:56;;;;;;;3.47;2.90;;;28.00;97.90;;;;;;5010320;28;20240;-36
2022/05/17 12:24:47;;;;;;;3.50;2.75;;;28.20;96.90;;;;;;5010217;28;20186;-38
2022/05/17 12:27:18;;;;;;;4.85;3.08;;;28.50;96.60;;;;;;5031308;28;20194;-36
2022/05/17 12:33:03;;;;;;;3.00;2.40;;;28.60;95.60;;;;;;4995129;28;20188;-40
2022/05/17 12:35:30;;;;;;;3.58;2.40;;;28.50;94.00;;;;;;5012155;28;20210;-38
2022/05/17 12:38:01;;;;;;;3.33;2.83;;;28.20;94.20;;;;;;5029429;28;20170;-39
2022/05/17 12:43:31;;;;;;;3.35;2.25;;;28.40;95.00;;;;;;5012856;28;20182;-36
2022/05/17 12:46:14;;;;;;;4.57;2.17;;;28.60;94.40;;;;;;5011712;28;20198;-36
2022/05/17 12:48:42;;;;;;;3.67;2.00;;;28.60;93.90;;;;;;4996903;28;20215;-39
2022/05/17 12:51:19;;;;;;;3.08;1.98;;;28.50;92.90;;;;;;5013544;28;20236;-41
2022/05/17 12:53:48;;;;;;;3.35;2.30;;;28.60;93.60;;;;;;5023072;28;20544;-36
2022/05/17 12:56:20;;;;;;;2.35;2.10;;;28.40;93.20;;;;;;5002358;28;20211;-39
2022/05/17 12:58:51;;;;;;;3.50;2.28;;;28.40;92.90;;;;;;4997656;28;20190;-38
2022/05/17 13:01:30;;;;;;;2.58;2.00;;;27.80;92.30;;;;;;5012297;28;20214;-37
2022/05/17 13:04:03;;;;;;;2.28;2.05;;;27.20;92.00;;;;;;4997587;28;20185;-36
2022/05/17 13:06:39;;;;;;;4.82;2.10;;;27.00;92.90;;;;;;4997094;28;20198;-40
2022/05/17 13:09:14;;;;;;;2.70;1.95;;;27.30;93.90;;;;;;5003252;28;20175;-36
2022/05/17 13:11:39;;;;;;;3.83;2.00;;;27.70;93.80;;;;;;5011319;28;20186;-36
2022/05/17 13:14:09;;;;;;;2.20;2.00;;;28.10;94.40;;;;;;5029862;28;20190;-38
2022/05/17 13:16:45;;;;;;;3.80;2.15;;;28.00;93.20;;;;;;5002384;28;20210;-37
2022/05/17 13:19:17;;;;;;;3.33;2.20;;;28.30;94.20;;;;;;5011306;28;20190;-39
2022/05/17 13:21:48;;;;;;;3.47;1.95;;;28.70;93.10;;;;;;5011901;28;20202;-42